sensor_id;sensor_type;location;lat;lon;timestamp;temperature;humidity
2391;DHT22;22957;50.824;4.360;2023-05-17T00:00:58;12.50;99.90
2391;DHT22;22957;50.824;4.360;2023-05-17T00:03:23;12.80;99.90
2391;DHT22;22957;50.824;4.360;2023-05-17T00:05:49;12.90;99.90
2391;DHT22;22957;50.824;4.360;2023-05-17T00:08:14;12.70;99.90
2391;DHT22;22957;50.824;4.360;2023-05-17T00:10:40;12.90;99.90
2391;DHT22;22957;50.824;4.360;2023-05-17T00:13:06;13.10;99.90
2391;DHT22;22957;50.824;4.360;2023-05-17T00:15:31;13.60;99.90
2391;DHT22;22957;50.824;4.360;2023-05-17T00:17:57;13.30;99.90
2391;DHT22;22957;50.824;4.360;2023-05-17T00:20:23;13.00;99.90
2391;DHT22;22957;50.824;4.360;2023-05-17T00:22:48;13.20;99.90
2391;DHT22;22957;50.824;4.360;2023-05-17T00:25:14;13.30;99.90
2391;DHT22;22957;50.824;4.360;2023-05-17T00:27:39;13.10;99.90
2391;DHT22;22957;50.824;4.360;2023-05-17T00:30:06;13.20;99.90
2391;DHT22;22957;50.824;4.360;2023-05-17T00:32:31;13.60;99.90
2391;DHT22;22957;50.824;4.360;2023-05-17T00:34:57;13.90;99.90
2391;DHT22;22957;50.824;4.360;2023-05-17T00:37:22;13.80;99.90
2391;DHT22;22957;50.824;4.360;2023-05-17T00:39:48;13.70;99.90
2391;DHT22;22957;50.824;4.360;2023-05-17T00:42:14;13.50;99.90
2391;DHT22;22957;50.824;4.360;2023-05-17T00:44:39;13.40;99.90
2391;DHT22;22957;50.824;4.360;2023-05-17T00:47:05;13.40;99.90
2391;DHT22;22957;50.824;4.360;2023-05-17T00:49:31;13.10;99.90
2391;DHT22;22957;50.824;4.360;2023-05-17T00:51:57;13.40;99.90
2391;DHT22;22957;50.824;4.360;2023-05-17T00:54:24;13.50;99.90
2391;DHT22;22957;50.824;4.360;2023-05-17T00:56:51;13.20;99.90
2391;DHT22;22957;50.824;4.360;2023-05-17T00:59:17;13.10;99.90
2391;DHT22;22957;50.824;4.360;2023-05-17T01:01:44;13.10;99.90
2391;DHT22;22957;50.824;4.360;2023-05-17T01:04:09;13.60;99.90
2391;DHT22;22957;50.824;4.360;2023-05-17T01:06:36;13.00;99.90
2391;DHT22;22957;50.824;4.360;2023-05-17T01:09:02;12.60;99.90
2391;DHT22;22957;50.824;4.360;2023-05-17T01:11:38;12.70;99.90
2391;DHT22;22957;50.824;4.360;2023-05-17T01:14:10;13.10;99.90
2391;DHT22;22957;50.824;4.360;2023-05-17T01:16:50;12.70;99.90
2391;DHT22;22957;50.824;4.360;2023-05-17T01:24:58;13.20;99.90
2391;DHT22;22957;50.824;4.360;2023-05-17T01:27:27;12.70;99.90
2391;DHT22;22957;50.824;4.360;2023-05-17T01:29:55;13.00;99.90
2391;DHT22;22957;50.824;4.360;2023-05-17T01:32:23;12.80;99.90
2391;DHT22;22957;50.824;4.360;2023-05-17T01:34:49;12.70;99.90
2391;DHT22;22957;50.824;4.360;2023-05-17T01:37:15;12.70;99.90
2391;DHT22;22957;50.824;4.360;2023-05-17T01:39:41;12.70;99.90
2391;DHT22;22957;50.824;4.360;2023-05-17T01:42:22;13.20;99.90
2391;DHT22;22957;50.824;4.360;2023-05-17T01:45:05;13.10;99.90
2391;DHT22;22957;50.824;4.360;2023-05-17T01:50:05;13.00;99.90
2391;DHT22;22957;50.824;4.360;2023-05-17T01:52:40;13.00;99.90
2391;DHT22;22957;50.824;4.360;2023-05-17T01:55:13;13.10;99.90
2391;DHT22;22957;50.824;4.360;2023-05-17T01:57:44;12.70;99.90
2391;DHT22;22957;50.824;4.360;2023-05-17T02:00:13;12.50;99.90
2391;DHT22;22957;50.824;4.360;2023-05-17T02:02:39;13.10;99.90
2391;DHT22;22957;50.824;4.360;2023-05-17T02:05:05;12.70;99.90
2391;DHT22;22957;50.824;4.360;2023-05-17T02:07:31;12.80;99.90
2391;DHT22;22957;50.824;4.360;2023-05-17T02:09:57;12.70;99.90
2391;DHT22;22957;50.824;4.360;2023-05-17T02:12:22;12.80;99.90
2391;DHT22;22957;50.824;4.360;2023-05-17T02:14:49;12.70;99.90
2391;DHT22;22957;50.824;4.360;2023-05-17T02:17:15;13.00;99.90
2391;DHT22;22957;50.824;4.360;2023-05-17T02:19:40;13.00;99.90
2391;DHT22;22957;50.824;4.360;2023-05-17T02:22:06;12.90;99.90
2391;DHT22;22957;50.824;4.360;2023-05-17T02:24:31;13.20;99.90
2391;DHT22;22957;50.824;4.360;2023-05-17T02:26:57;13.00;99.90
2391;DHT22;22957;50.824;4.360;2023-05-17T02:29:22;13.20;99.90
2391;DHT22;22957;50.824;4.360;2023-05-17T02:31:48;13.70;99.90
2391;DHT22;22957;50.824;4.360;2023-05-17T02:34:14;13.50;99.90
2391;DHT22;22957;50.824;4.360;2023-05-17T02:36:39;13.50;99.90
2391;DHT22;22957;50.824;4.360;2023-05-17T02:39:05;13.70;99.90
2391;DHT22;22957;50.824;4.360;2023-05-17T02:41:31;13.80;99.90
2391;DHT22;22957;50.824;4.360;2023-05-17T02:43:56;13.90;99.90
2391;DHT22;22957;50.824;4.360;2023-05-17T02:46:22;13.50;99.90
2391;DHT22;22957;50.824;4.360;2023-05-17T02:48:48;13.20;99.90
2391;DHT22;22957;50.824;4.360;2023-05-17T02:51:13;13.10;99.90
2391;DHT22;22957;50.824;4.360;2023-05-17T02:53:39;12.60;99.90
2391;DHT22;22957;50.824;4.360;2023-05-17T02:56:04;12.30;99.90
2391;DHT22;22957;50.824;4.360;2023-05-17T02:58:30;12.40;99.90
2391;DHT22;22957;50.824;4.360;2023-05-17T03:00:56;12.80;99.90
2391;DHT22;22957;50.824;4.360;2023-05-17T03:03:21;12.80;99.90
2391;DHT22;22957;50.824;4.360;2023-05-17T03:05:47;13.10;99.90
2391;DHT22;22957;50.824;4.360;2023-05-17T03:08:13;13.20;99.90
2391;DHT22;22957;50.824;4.360;2023-05-17T03:10:38;12.90;99.90
2391;DHT22;22957;50.824;4.360;2023-05-17T03:13:04;12.60;99.90
2391;DHT22;22957;50.824;4.360;2023-05-17T03:15:29;13.50;99.90
2391;DHT22;22957;50.824;4.360;2023-05-17T03:17:55;13.20;99.90
2391;DHT22;22957;50.824;4.360;2023-05-17T03:20:21;13.00;99.90
2391;DHT22;22957;50.824;4.360;2023-05-17T03:22:47;12.70;99.90
2391;DHT22;22957;50.824;4.360;2023-05-17T03:25:13;12.80;99.90
2391;DHT22;22957;50.824;4.360;2023-05-17T03:27:39;12.70;99.90
2391;DHT22;22957;50.824;4.360;2023-05-17T03:30:05;12.60;99.90
2391;DHT22;22957;50.824;4.360;2023-05-17T03:32:31;12.70;99.90
2391;DHT22;22957;50.824;4.360;2023-05-17T03:34:57;13.10;99.90
2391;DHT22;22957;50.824;4.360;2023-05-17T03:37:22;13.10;99.90
2391;DHT22;22957;50.824;4.360;2023-05-17T03:39:48;13.10;99.90
2391;DHT22;22957;50.824;4.360;2023-05-17T03:42:13;13.50;99.90
2391;DHT22;22957;50.824;4.360;2023-05-17T03:44:39;13.20;99.90
2391;DHT22;22957;50.824;4.360;2023-05-17T03:47:05;13.00;99.90
2391;DHT22;22957;50.824;4.360;2023-05-17T03:49:31;13.00;99.90
2391;DHT22;22957;50.824;4.360;2023-05-17T03:51:57;12.80;99.90
2391;DHT22;22957;50.824;4.360;2023-05-17T03:54:22;13.00;99.90
2391;DHT22;22957;50.824;4.360;2023-05-17T03:56:48;12.70;99.90
2391;DHT22;22957;50.824;4.360;2023-05-17T03:59:14;12.90;99.90
2391;DHT22;22957;50.824;4.360;2023-05-17T04:01:41;13.10;99.90
2391;DHT22;22957;50.824;4.360;2023-05-17T04:04:07;13.10;99.90
2391;DHT22;22957;50.824;4.360;2023-05-17T04:06:32;13.30;99.90
2391;DHT22;22957;50.824;4.360;2023-05-17T04:08:58;13.20;99.90
2391;DHT22;22957;50.824;4.360;2023-05-17T04:11:25;13.50;99.90
2391;DHT22;22957;50.824;4.360;2023-05-17T04:13:52;13.60;99.90
2391;DHT22;22957;50.824;4.360;2023-05-17T04:16:18;13.20;99.90
2391;DHT22;22957;50.824;4.360;2023-05-17T04:18:44;13.60;99.90
2391;DHT22;22957;50.824;4.360;2023-05-17T04:21:10;13.10;99.90
2391;DHT22;22957;50.824;4.360;2023-05-17T04:23:36;13.40;99.90
2391;DHT22;22957;50.824;4.360;2023-05-17T04:26:02;13.20;99.90
2391;DHT22;22957;50.824;4.360;2023-05-17T04:28:29;13.20;99.90
2391;DHT22;22957;50.824;4.360;2023-05-17T04:30:55;13.30;99.90
2391;DHT22;22957;50.824;4.360;2023-05-17T04:33:21;13.40;99.90
2391;DHT22;22957;50.824;4.360;2023-05-17T04:35:48;13.30;99.90
2391;DHT22;22957;50.824;4.360;2023-05-17T04:38:15;13.30;99.90
2391;DHT22;22957;50.824;4.360;2023-05-17T04:40:40;14.00;99.90
2391;DHT22;22957;50.824;4.360;2023-05-17T04:43:06;13.80;99.90
2391;DHT22;22957;50.824;4.360;2023-05-17T04:45:32;13.60;99.90
2391;DHT22;22957;50.824;4.360;2023-05-17T04:47:58;13.70;99.90
2391;DHT22;22957;50.824;4.360;2023-05-17T04:50:24;13.60;99.90
2391;DHT22;22957;50.824;4.360;2023-05-17T04:52:51;13.50;99.90
2391;DHT22;22957;50.824;4.360;2023-05-17T04:55:16;13.50;99.90
2391;DHT22;22957;50.824;4.360;2023-05-17T04:57:42;13.30;99.90
2391;DHT22;22957;50.824;4.360;2023-05-17T05:00:08;13.10;99.90
2391;DHT22;22957;50.824;4.360;2023-05-17T05:02:34;13.50;99.90
2391;DHT22;22957;50.824;4.360;2023-05-17T05:05:01;13.50;99.90
2391;DHT22;22957;50.824;4.360;2023-05-17T05:07:27;14.00;99.90
2391;DHT22;22957;50.824;4.360;2023-05-17T05:09:53;14.20;99.90
2391;DHT22;22957;50.824;4.360;2023-05-17T05:12:19;14.60;99.90
2391;DHT22;22957;50.824;4.360;2023-05-17T05:14:44;15.50;99.90
2391;DHT22;22957;50.824;4.360;2023-05-17T05:17:10;14.80;99.90
2391;DHT22;22957;50.824;4.360;2023-05-17T05:19:35;14.10;99.90
2391;DHT22;22957;50.824;4.360;2023-05-17T05:22:01;13.90;99.90
2391;DHT22;22957;50.824;4.360;2023-05-17T05:24:27;13.90;99.90
2391;DHT22;22957;50.824;4.360;2023-05-17T05:26:52;14.10;99.90
2391;DHT22;22957;50.824;4.360;2023-05-17T05:29:18;14.70;99.90
2391;DHT22;22957;50.824;4.360;2023-05-17T05:31:44;15.20;99.90
2391;DHT22;22957;50.824;4.360;2023-05-17T05:34:09;15.40;99.90
2391;DHT22;22957;50.824;4.360;2023-05-17T05:36:35;15.30;99.90
2391;DHT22;22957;50.824;4.360;2023-05-17T05:39:01;16.10;99.90
2391;DHT22;22957;50.824;4.360;2023-05-17T05:41:26;15.70;99.90
2391;DHT22;22957;50.824;4.360;2023-05-17T05:43:52;16.10;99.90
2391;DHT22;22957;50.824;4.360;2023-05-17T05:46:18;16.10;99.90
2391;DHT22;22957;50.824;4.360;2023-05-17T05:48:43;16.40;99.90
2391;DHT22;22957;50.824;4.360;2023-05-17T05:51:10;17.10;99.90
2391;DHT22;22957;50.824;4.360;2023-05-17T05:53:36;17.50;99.90
2391;DHT22;22957;50.824;4.360;2023-05-17T05:56:02;16.90;99.90
2391;DHT22;22957;50.824;4.360;2023-05-17T05:58:29;16.70;99.90
2391;DHT22;22957;50.824;4.360;2023-05-17T06:00:55;16.80;99.90
2391;DHT22;22957;50.824;4.360;2023-05-17T06:03:22;17.50;99.90
2391;DHT22;22957;50.824;4.360;2023-05-17T06:05:48;17.60;99.90
2391;DHT22;22957;50.824;4.360;2023-05-17T06:08:14;17.50;99.90
2391;DHT22;22957;50.824;4.360;2023-05-17T06:10:39;18.00;99.90
2391;DHT22;22957;50.824;4.360;2023-05-17T06:13:05;18.30;99.90
2391;DHT22;22957;50.824;4.360;2023-05-17T06:15:31;18.10;99.90
2391;DHT22;22957;50.824;4.360;2023-05-17T06:17:57;17.30;99.90
2391;DHT22;22957;50.824;4.360;2023-05-17T06:20:22;17.60;99.90
2391;DHT22;22957;50.824;4.360;2023-05-17T06:22:48;17.60;99.90
2391;DHT22;22957;50.824;4.360;2023-05-17T06:25:14;18.00;99.90
2391;DHT22;22957;50.824;4.360;2023-05-17T06:27:39;18.00;99.90
2391;DHT22;22957;50.824;4.360;2023-05-17T06:30:06;18.10;99.90
2391;DHT22;22957;50.824;4.360;2023-05-17T06:32:31;18.20;99.90
2391;DHT22;22957;50.824;4.360;2023-05-17T06:34:57;18.50;99.90
2391;DHT22;22957;50.824;4.360;2023-05-17T06:37:23;17.60;99.90
2391;DHT22;22957;50.824;4.360;2023-05-17T06:39:52;17.70;99.90
2391;DHT22;22957;50.824;4.360;2023-05-17T06:42:18;16.50;99.90
2391;DHT22;22957;50.824;4.360;2023-05-17T06:44:43;16.90;99.90
2391;DHT22;22957;50.824;4.360;2023-05-17T06:47:09;17.10;99.90
2391;DHT22;22957;50.824;4.360;2023-05-17T06:49:36;17.20;99.90
2391;DHT22;22957;50.824;4.360;2023-05-17T06:52:02;17.40;99.90
2391;DHT22;22957;50.824;4.360;2023-05-17T06:54:30;17.90;99.90
2391;DHT22;22957;50.824;4.360;2023-05-17T06:57:00;18.10;99.90
2391;DHT22;22957;50.824;4.360;2023-05-17T06:59:25;19.00;99.90
2391;DHT22;22957;50.824;4.360;2023-05-17T07:01:51;19.40;99.90
2391;DHT22;22957;50.824;4.360;2023-05-17T07:04:16;19.40;99.90
2391;DHT22;22957;50.824;4.360;2023-05-17T07:06:42;19.60;99.90
2391;DHT22;22957;50.824;4.360;2023-05-17T07:09:07;20.50;99.90
2391;DHT22;22957;50.824;4.360;2023-05-17T07:11:33;21.50;99.90
2391;DHT22;22957;50.824;4.360;2023-05-17T07:13:59;21.50;99.90
2391;DHT22;22957;50.824;4.360;2023-05-17T07:16:24;22.70;99.90
2391;DHT22;22957;50.824;4.360;2023-05-17T07:18:50;21.60;99.90
2391;DHT22;22957;50.824;4.360;2023-05-17T07:21:16;20.10;99.90
2391;DHT22;22957;50.824;4.360;2023-05-17T07:23:41;20.70;99.90
2391;DHT22;22957;50.824;4.360;2023-05-17T07:26:07;21.10;99.90
2391;DHT22;22957;50.824;4.360;2023-05-17T07:28:32;20.30;99.90
2391;DHT22;22957;50.824;4.360;2023-05-17T07:30:58;17.50;99.90
2391;DHT22;22957;50.824;4.360;2023-05-17T07:33:24;18.30;99.90
2391;DHT22;22957;50.824;4.360;2023-05-17T07:35:49;20.30;99.90
2391;DHT22;22957;50.824;4.360;2023-05-17T07:38:15;20.20;99.90
2391;DHT22;22957;50.824;4.360;2023-05-17T07:40:41;20.70;99.90
2391;DHT22;22957;50.824;4.360;2023-05-17T07:43:06;21.40;99.90
2391;DHT22;22957;50.824;4.360;2023-05-17T07:45:32;21.60;99.90
2391;DHT22;22957;50.824;4.360;2023-05-17T07:47:58;20.40;99.90
2391;DHT22;22957;50.824;4.360;2023-05-17T07:50:24;19.60;99.90
2391;DHT22;22957;50.824;4.360;2023-05-17T07:52:50;16.30;99.90
2391;DHT22;22957;50.824;4.360;2023-05-17T07:55:16;20.20;99.90
2391;DHT22;22957;50.824;4.360;2023-05-17T07:57:41;19.80;99.90
2391;DHT22;22957;50.824;4.360;2023-05-17T08:00:08;20.50;99.90
2391;DHT22;22957;50.824;4.360;2023-05-17T08:02:37;21.10;99.90
2391;DHT22;22957;50.824;4.360;2023-05-17T08:05:03;19.10;99.90
2391;DHT22;22957;50.824;4.360;2023-05-17T08:07:29;20.30;99.90
2391;DHT22;22957;50.824;4.360;2023-05-17T08:09:55;20.50;99.90
2391;DHT22;22957;50.824;4.360;2023-05-17T08:12:20;20.40;99.90
2391;DHT22;22957;50.824;4.360;2023-05-17T08:14:46;21.90;99.90
2391;DHT22;22957;50.824;4.360;2023-05-17T08:17:12;19.80;99.90
2391;DHT22;22957;50.824;4.360;2023-05-17T08:19:37;22.60;99.90
2391;DHT22;22957;50.824;4.360;2023-05-17T08:22:03;22.20;99.90
2391;DHT22;22957;50.824;4.360;2023-05-17T08:24:29;23.10;99.00
2391;DHT22;22957;50.824;4.360;2023-05-17T08:26:55;20.30;99.20
2391;DHT22;22957;50.824;4.360;2023-05-17T08:29:21;19.20;99.90
2391;DHT22;22957;50.824;4.360;2023-05-17T08:31:46;19.30;99.90
2391;DHT22;22957;50.824;4.360;2023-05-17T08:34:12;19.90;99.90
2391;DHT22;22957;50.824;4.360;2023-05-17T08:36:37;20.90;99.90
2391;DHT22;22957;50.824;4.360;2023-05-17T08:39:03;19.50;99.90
2391;DHT22;22957;50.824;4.360;2023-05-17T08:41:29;20.40;99.90
2391;DHT22;22957;50.824;4.360;2023-05-17T08:43:55;18.30;99.90
2391;DHT22;22957;50.824;4.360;2023-05-17T08:46:25;17.50;99.90
2391;DHT22;22957;50.824;4.360;2023-05-17T08:48:52;17.90;99.90
2391;DHT22;22957;50.824;4.360;2023-05-17T08:51:20;18.30;99.90
2391;DHT22;22957;50.824;4.360;2023-05-17T08:53:47;19.10;99.90
2391;DHT22;22957;50.824;4.360;2023-05-17T08:56:15;18.50;99.90
2391;DHT22;22957;50.824;4.360;2023-05-17T08:58:44;19.00;99.90
2391;DHT22;22957;50.824;4.360;2023-05-17T09:01:12;20.00;99.90
2391;DHT22;22957;50.824;4.360;2023-05-17T09:03:40;20.30;99.90
2391;DHT22;22957;50.824;4.360;2023-05-17T09:06:07;19.70;99.90
2391;DHT22;22957;50.824;4.360;2023-05-17T09:08:36;20.10;99.90
2391;DHT22;22957;50.824;4.360;2023-05-17T09:11:02;19.70;99.90
2391;DHT22;22957;50.824;4.360;2023-05-17T09:13:28;19.90;99.90
2391;DHT22;22957;50.824;4.360;2023-05-17T09:15:53;18.90;99.90
2391;DHT22;22957;50.824;4.360;2023-05-17T09:18:28;21.20;99.90
2391;DHT22;22957;50.824;4.360;2023-05-17T09:21:01;23.60;96.50
2391;DHT22;22957;50.824;4.360;2023-05-17T09:23:30;19.60;96.70
2391;DHT22;22957;50.824;4.360;2023-05-17T09:26:03;19.70;98.20
2391;DHT22;22957;50.824;4.360;2023-05-17T09:28:39;22.20;96.70
2391;DHT22;22957;50.824;4.360;2023-05-17T09:31:06;23.00;96.00
2391;DHT22;22957;50.824;4.360;2023-05-17T09:33:32;23.10;94.90
2391;DHT22;22957;50.824;4.360;2023-05-17T09:35:58;22.40;96.00
2391;DHT22;22957;50.824;4.360;2023-05-17T09:38:25;22.90;95.00
2391;DHT22;22957;50.824;4.360;2023-05-17T09:40:52;19.60;97.70
2391;DHT22;22957;50.824;4.360;2023-05-17T09:43:25;21.60;95.80
2391;DHT22;22957;50.824;4.360;2023-05-17T09:45:55;21.70;92.40
2391;DHT22;22957;50.824;4.360;2023-05-17T09:48:21;20.40;94.40
2391;DHT22;22957;50.824;4.360;2023-05-17T09:50:49;22.20;93.70
2391;DHT22;22957;50.824;4.360;2023-05-17T09:55:47;21.40;93.10
2391;DHT22;22957;50.824;4.360;2023-05-17T09:58:13;18.00;95.80
2391;DHT22;22957;50.824;4.360;2023-05-17T10:00:40;20.10;95.40
2391;DHT22;22957;50.824;4.360;2023-05-17T10:03:09;22.20;94.30
2391;DHT22;22957;50.824;4.360;2023-05-17T10:05:36;22.80;93.30
2391;DHT22;22957;50.824;4.360;2023-05-17T10:08:04;23.40;91.80
2391;DHT22;22957;50.824;4.360;2023-05-17T10:10:30;22.60;90.60
2391;DHT22;22957;50.824;4.360;2023-05-17T10:12:58;20.70;92.20
2391;DHT22;22957;50.824;4.360;2023-05-17T10:15:25;20.00;93.40
2391;DHT22;22957;50.824;4.360;2023-05-17T10:17:51;21.10;92.60
2391;DHT22;22957;50.824;4.360;2023-05-17T10:20:19;20.40;91.70
2391;DHT22;22957;50.824;4.360;2023-05-17T10:22:46;19.80;92.20
2391;DHT22;22957;50.824;4.360;2023-05-17T10:25:12;20.20;92.80
2391;DHT22;22957;50.824;4.360;2023-05-17T10:27:38;19.90;92.90
2391;DHT22;22957;50.824;4.360;2023-05-17T10:30:05;20.20;92.60
2391;DHT22;22957;50.824;4.360;2023-05-17T10:32:36;17.90;93.30
2391;DHT22;22957;50.824;4.360;2023-05-17T10:35:03;20.00;93.50
2391;DHT22;22957;50.824;4.360;2023-05-17T10:37:29;19.70;93.40
2391;DHT22;22957;50.824;4.360;2023-05-17T10:39:56;19.80;92.20
2391;DHT22;22957;50.824;4.360;2023-05-17T10:42:22;20.00;92.60
2391;DHT22;22957;50.824;4.360;2023-05-17T10:44:52;21.40;91.80
2391;DHT22;22957;50.824;4.360;2023-05-17T10:47:18;21.90;91.50
2391;DHT22;22957;50.824;4.360;2023-05-17T10:49:44;22.60;89.90
2391;DHT22;22957;50.824;4.360;2023-05-17T10:52:16;20.90;90.20
2391;DHT22;22957;50.824;4.360;2023-05-17T10:54:44;21.20;90.20
2391;DHT22;22957;50.824;4.360;2023-05-17T10:57:32;20.70;89.60
2391;DHT22;22957;50.824;4.360;2023-05-17T11:00:00;21.30;88.40
2391;DHT22;22957;50.824;4.360;2023-05-17T11:02:27;21.50;88.30
2391;DHT22;22957;50.824;4.360;2023-05-17T11:04:53;20.30;86.70
2391;DHT22;22957;50.824;4.360;2023-05-17T11:07:28;20.30;89.80
2391;DHT22;22957;50.824;4.360;2023-05-17T11:12:38;22.40;85.90
2391;DHT22;22957;50.824;4.360;2023-05-17T11:15:14;21.50;83.10
2391;DHT22;22957;50.824;4.360;2023-05-17T11:25:20;20.40;87.70
2391;DHT22;22957;50.824;4.360;2023-05-17T11:27:50;21.70;84.60
2391;DHT22;22957;50.824;4.360;2023-05-17T11:30:30;19.10;87.10
2391;DHT22;22957;50.824;4.360;2023-05-17T11:33:04;19.00;89.80
2391;DHT22;22957;50.824;4.360;2023-05-17T11:35:37;19.00;86.20
2391;DHT22;22957;50.824;4.360;2023-05-17T11:40:41;18.20;86.90
2391;DHT22;22957;50.824;4.360;2023-05-17T11:45:44;19.60;84.90
2391;DHT22;22957;50.824;4.360;2023-05-17T11:48:11;21.20;85.60
2391;DHT22;22957;50.824;4.360;2023-05-17T11:50:38;19.70;82.80
2391;DHT22;22957;50.824;4.360;2023-05-17T11:53:08;19.10;85.60
2391;DHT22;22957;50.824;4.360;2023-05-17T11:55:38;21.30;84.00
2391;DHT22;22957;50.824;4.360;2023-05-17T11:58:06;22.40;82.50
2391;DHT22;22957;50.824;4.360;2023-05-17T12:00:32;21.00;82.20
2391;DHT22;22957;50.824;4.360;2023-05-17T12:03:23;23.00;79.00
2391;DHT22;22957;50.824;4.360;2023-05-17T12:06:12;23.30;74.20
2391;DHT22;22957;50.824;4.360;2023-05-17T12:08:43;21.00;79.40
2391;DHT22;22957;50.824;4.360;2023-05-17T12:11:14;21.80;80.00
2391;DHT22;22957;50.824;4.360;2023-05-17T12:13:42;22.30;78.10
2391;DHT22;22957;50.824;4.360;2023-05-17T12:16:12;20.90;76.70
2391;DHT22;22957;50.824;4.360;2023-05-17T12:18:43;21.70;81.50
2391;DHT22;22957;50.824;4.360;2023-05-17T12:21:11;21.70;76.20
2391;DHT22;22957;50.824;4.360;2023-05-17T12:23:39;21.80;77.80
2391;DHT22;22957;50.824;4.360;2023-05-17T12:26:13;22.40;76.90
2391;DHT22;22957;50.824;4.360;2023-05-17T12:28:41;20.80;76.10
2391;DHT22;22957;50.824;4.360;2023-05-17T12:31:15;21.80;77.40
2391;DHT22;22957;50.824;4.360;2023-05-17T12:33:42;22.40;76.60
2391;DHT22;22957;50.824;4.360;2023-05-17T12:36:10;21.30;77.90
2391;DHT22;22957;50.824;4.360;2023-05-17T12:38:38;21.70;78.90
2391;DHT22;22957;50.824;4.360;2023-05-17T12:41:06;22.30;77.10
2391;DHT22;22957;50.824;4.360;2023-05-17T12:43:34;23.20;74.20
2391;DHT22;22957;50.824;4.360;2023-05-17T12:46:29;21.80;75.50
2391;DHT22;22957;50.824;4.360;2023-05-17T12:49:00;20.70;77.10
2391;DHT22;22957;50.824;4.360;2023-05-17T12:51:29;22.00;77.50
2391;DHT22;22957;50.824;4.360;2023-05-17T12:54:03;23.00;72.90
2391;DHT22;22957;50.824;4.360;2023-05-17T12:56:29;20.60;74.70
2391;DHT22;22957;50.824;4.360;2023-05-17T12:59:05;18.90;76.20
2391;DHT22;22957;50.824;4.360;2023-05-17T13:01:35;18.40;79.50
2391;DHT22;22957;50.824;4.360;2023-05-17T13:04:02;20.70;81.00
2391;DHT22;22957;50.824;4.360;2023-05-17T13:06:28;21.20;78.50
2391;DHT22;22957;50.824;4.360;2023-05-17T13:09:00;21.30;77.00
2391;DHT22;22957;50.824;4.360;2023-05-17T13:11:26;21.10;78.30
2391;DHT22;22957;50.824;4.360;2023-05-17T13:13:51;20.30;78.20
2391;DHT22;22957;50.824;4.360;2023-05-17T13:16:27;19.80;79.70
2391;DHT22;22957;50.824;4.360;2023-05-17T13:18:53;21.70;76.40
2391;DHT22;22957;50.824;4.360;2023-05-17T13:21:20;21.80;76.10
2391;DHT22;22957;50.824;4.360;2023-05-17T13:23:47;19.10;78.40
2391;DHT22;22957;50.824;4.360;2023-05-17T13:26:13;21.20;79.80
2391;DHT22;22957;50.824;4.360;2023-05-17T13:28:39;20.60;78.30
2391;DHT22;22957;50.824;4.360;2023-05-17T13:31:05;21.00;78.20
2391;DHT22;22957;50.824;4.360;2023-05-17T13:33:31;19.10;78.70
2391;DHT22;22957;50.824;4.360;2023-05-17T13:35:56;20.80;78.00
2391;DHT22;22957;50.824;4.360;2023-05-17T13:38:22;21.40;77.70
2391;DHT22;22957;50.824;4.360;2023-05-17T13:40:48;19.90;76.20
2391;DHT22;22957;50.824;4.360;2023-05-17T13:43:13;20.40;79.70
2391;DHT22;22957;50.824;4.360;2023-05-17T13:45:39;18.60;80.40
2391;DHT22;22957;50.824;4.360;2023-05-17T13:48:05;17.40;82.90
2391;DHT22;22957;50.824;4.360;2023-05-17T13:50:31;17.90;84.60
2391;DHT22;22957;50.824;4.360;2023-05-17T13:52:57;20.20;81.60
2391;DHT22;22957;50.824;4.360;2023-05-17T13:55:23;20.80;78.30
2391;DHT22;22957;50.824;4.360;2023-05-17T13:57:49;19.50;80.50
2391;DHT22;22957;50.824;4.360;2023-05-17T14:00:14;18.30;80.00
2391;DHT22;22957;50.824;4.360;2023-05-17T14:02:40;18.70;81.80
2391;DHT22;22957;50.824;4.360;2023-05-17T14:05:06;19.20;81.60
2391;DHT22;22957;50.824;4.360;2023-05-17T14:07:34;18.10;80.90
2391;DHT22;22957;50.824;4.360;2023-05-17T14:10:00;19.80;81.30
2391;DHT22;22957;50.824;4.360;2023-05-17T14:12:26;20.10;80.10
2391;DHT22;22957;50.824;4.360;2023-05-17T14:14:52;19.00;79.80
2391;DHT22;22957;50.824;4.360;2023-05-17T14:17:18;18.90;80.80
2391;DHT22;22957;50.824;4.360;2023-05-17T14:19:43;19.80;77.70
2391;DHT22;22957;50.824;4.360;2023-05-17T14:22:09;18.90;80.70
2391;DHT22;22957;50.824;4.360;2023-05-17T14:24:35;19.70;79.10
2391;DHT22;22957;50.824;4.360;2023-05-17T14:27:00;20.50;79.90
2391;DHT22;22957;50.824;4.360;2023-05-17T14:29:27;19.30;81.20
2391;DHT22;22957;50.824;4.360;2023-05-17T14:31:54;19.40;81.80
2391;DHT22;22957;50.824;4.360;2023-05-17T14:34:20;19.70;80.90
2391;DHT22;22957;50.824;4.360;2023-05-17T14:36:46;20.60;78.50
2391;DHT22;22957;50.824;4.360;2023-05-17T14:39:11;18.70;80.30
2391;DHT22;22957;50.824;4.360;2023-05-17T14:41:37;17.50;81.60
2391;DHT22;22957;50.824;4.360;2023-05-17T14:44:04;16.40;82.00
2391;DHT22;22957;50.824;4.360;2023-05-17T14:46:29;18.00;82.20
2391;DHT22;22957;50.824;4.360;2023-05-17T14:48:55;19.30;81.30
2391;DHT22;22957;50.824;4.360;2023-05-17T14:51:21;19.30;80.40
2391;DHT22;22957;50.824;4.360;2023-05-17T14:53:47;19.90;79.60
2391;DHT22;22957;50.824;4.360;2023-05-17T14:56:12;20.60;78.50
2391;DHT22;22957;50.824;4.360;2023-05-17T14:58:39;18.10;79.50
2391;DHT22;22957;50.824;4.360;2023-05-17T15:01:06;19.30;80.10
2391;DHT22;22957;50.824;4.360;2023-05-17T15:03:32;20.20;78.70
2391;DHT22;22957;50.824;4.360;2023-05-17T15:05:58;20.80;78.00
2391;DHT22;22957;50.824;4.360;2023-05-17T15:08:24;20.50;78.80
2391;DHT22;22957;50.824;4.360;2023-05-17T15:10:50;20.60;78.10
2391;DHT22;22957;50.824;4.360;2023-05-17T15:13:16;21.10;77.10
2391;DHT22;22957;50.824;4.360;2023-05-17T15:15:45;20.20;78.10
2391;DHT22;22957;50.824;4.360;2023-05-17T15:18:14;19.40;78.80
2391;DHT22;22957;50.824;4.360;2023-05-17T15:20:39;19.70;79.20
2391;DHT22;22957;50.824;4.360;2023-05-17T15:23:06;20.30;78.30
2391;DHT22;22957;50.824;4.360;2023-05-17T15:25:31;20.60;78.50
2391;DHT22;22957;50.824;4.360;2023-05-17T15:27:57;19.50;80.40
2391;DHT22;22957;50.824;4.360;2023-05-17T15:30:23;20.30;79.40
2391;DHT22;22957;50.824;4.360;2023-05-17T15:32:52;19.80;78.20
2391;DHT22;22957;50.824;4.360;2023-05-17T15:35:18;19.10;77.40
2391;DHT22;22957;50.824;4.360;2023-05-17T15:37:44;18.40;81.50
2391;DHT22;22957;50.824;4.360;2023-05-17T15:40:10;19.10;80.90
2391;DHT22;22957;50.824;4.360;2023-05-17T15:42:36;18.50;82.30
2391;DHT22;22957;50.824;4.360;2023-05-17T15:45:02;18.70;80.70
2391;DHT22;22957;50.824;4.360;2023-05-17T15:47:27;19.10;80.90
2391;DHT22;22957;50.824;4.360;2023-05-17T15:49:53;19.70;81.00
2391;DHT22;22957;50.824;4.360;2023-05-17T15:52:19;19.70;79.80
2391;DHT22;22957;50.824;4.360;2023-05-17T15:54:45;18.70;82.20
2391;DHT22;22957;50.824;4.360;2023-05-17T15:57:14;18.50;82.10
2391;DHT22;22957;50.824;4.360;2023-05-17T15:59:40;17.50;86.10
2391;DHT22;22957;50.824;4.360;2023-05-17T16:02:05;18.00;85.00
2391;DHT22;22957;50.824;4.360;2023-05-17T16:04:31;18.80;82.90
2391;DHT22;22957;50.824;4.360;2023-05-17T16:06:57;18.30;82.50
2391;DHT22;22957;50.824;4.360;2023-05-17T16:09:24;19.10;82.10